createdAt,value
2018-08-09T00:00:37.249Z,1003.03
2018-08-09T00:02:30.153Z,1002.99
2018-08-09T00:03:30.091Z,1002.96
2018-08-09T00:05:23.011Z,1002.92
2018-08-09T00:06:22.943Z,1002.90
2018-08-09T00:08:15.821Z,1002.88
2018-08-09T00:09:15.796Z,1002.85
2018-08-09T00:11:08.714Z,1002.85
2018-08-09T00:12:08.654Z,1002.85
2018-08-09T00:14:01.522Z,1002.91
2018-08-09T00:15:01.498Z,1002.87
2018-08-09T00:16:54.398Z,1002.86
2018-08-09T00:17:54.348Z,1002.84
2018-08-09T00:19:47.233Z,1002.81
2018-08-09T00:20:47.200Z,1002.80
2018-08-09T00:22:40.099Z,1002.82
2018-08-09T00:23:40.076Z,1002.82
2018-08-09T00:25:32.937Z,1002.85
2018-08-09T00:26:32.898Z,1002.84
2018-08-09T00:28:25.808Z,1002.83
2018-08-09T00:29:25.752Z,1002.86
2018-08-09T00:31:18.650Z,1002.84
2018-08-09T00:32:18.603Z,1002.81
2018-08-09T00:33:18.580Z,1002.79
2018-08-09T00:34:18.550Z,1002.80
2018-08-09T00:35:18.531Z,1002.83
2018-08-09T00:36:18.504Z,1002.78
2018-08-09T00:37:18.480Z,1002.82
2018-08-09T00:38:18.461Z,1002.80
2018-08-09T00:39:18.431Z,1002.82
2018-08-09T00:40:18.407Z,1002.83
2018-08-09T00:41:18.387Z,1002.83
2018-08-09T00:42:18.357Z,1002.82
2018-08-09T00:43:18.340Z,1002.81
2018-08-09T00:44:18.356Z,1002.80
2018-08-09T00:45:18.287Z,1002.83
2018-08-09T00:46:18.260Z,1002.80
2018-08-09T00:47:18.246Z,1002.82
2018-08-09T00:48:18.215Z,1002.78
2018-08-09T00:49:18.193Z,1002.81
2018-08-09T00:50:18.171Z,1002.80
2018-08-09T00:51:18.139Z,1002.77
2018-08-09T00:52:18.117Z,1002.75
2018-08-09T00:53:18.097Z,1002.75
2018-08-09T00:54:18.074Z,1002.75
2018-08-09T00:55:18.052Z,1002.76
2018-08-09T00:56:18.022Z,1002.78
2018-08-09T00:57:18.002Z,1002.77
2018-08-09T00:58:17.969Z,1002.75
2018-08-09T00:59:17.953Z,1002.72
2018-08-09T01:00:17.928Z,1002.73
2018-08-09T01:01:17.896Z,1002.72
2018-08-09T01:02:17.879Z,1002.75
2018-08-09T01:03:17.850Z,1002.77
2018-08-09T01:04:17.825Z,1002.76
2018-08-09T01:05:17.808Z,1002.78
2018-08-09T01:06:17.776Z,1002.81
2018-08-09T01:07:17.763Z,1002.81
2018-08-09T01:08:17.734Z,1002.80
2018-08-09T01:09:17.705Z,1002.78
2018-08-09T01:10:17.686Z,1002.80
2018-08-09T01:11:17.657Z,1002.79
2018-08-09T01:12:17.634Z,1002.78
2018-08-09T01:13:17.607Z,1002.76
2018-08-09T01:14:17.589Z,1002.75
2018-08-09T01:15:17.563Z,1002.69
2018-08-09T01:16:17.538Z,1002.71
2018-08-09T01:17:17.524Z,1002.65
2018-08-09T01:18:17.498Z,1002.66
2018-08-09T01:19:17.464Z,1002.63
2018-08-09T01:20:17.442Z,1002.65
2018-08-09T01:21:17.413Z,1002.63
2018-08-09T01:22:17.395Z,1002.60
2018-08-09T01:23:17.367Z,1002.61
2018-08-09T01:24:17.348Z,1002.58
2018-08-09T01:25:17.315Z,1002.57
2018-08-09T01:26:17.298Z,1002.56
2018-08-09T01:27:17.265Z,1002.60
2018-08-09T01:28:17.243Z,1002.56
2018-08-09T01:29:17.228Z,1002.55
2018-08-09T01:30:17.195Z,1002.58
2018-08-09T01:31:17.178Z,1002.53
2018-08-09T01:32:17.147Z,1002.53
2018-08-09T01:33:17.120Z,1002.49
2018-08-09T01:34:17.099Z,1002.49
2018-08-09T01:35:17.079Z,1002.48
2018-08-09T01:36:17.054Z,1002.46
2018-08-09T01:37:17.026Z,1002.45
2018-08-09T01:38:17.004Z,1002.47
2018-08-09T01:39:16.983Z,1002.51
2018-08-09T01:40:16.957Z,1002.52
2018-08-09T01:41:16.929Z,1002.54
2018-08-09T01:42:16.908Z,1002.56
2018-08-09T01:43:16.881Z,1002.54
2018-08-09T01:44:16.855Z,1002.56
2018-08-09T01:45:16.836Z,1002.54
2018-08-09T01:46:16.809Z,1002.50
2018-08-09T01:47:16.787Z,1002.50
2018-08-09T01:48:16.761Z,1002.50
2018-08-09T01:49:16.746Z,1002.45
2018-08-09T01:50:16.715Z,1002.42
2018-08-09T01:51:16.694Z,1002.41
2018-08-09T01:52:16.663Z,1002.42
2018-08-09T01:53:16.637Z,1002.37
2018-08-09T01:54:16.621Z,1002.37
2018-08-09T01:55:16.591Z,1002.34
2018-08-09T01:56:16.564Z,1002.33
2018-08-09T01:57:16.548Z,1002.30
2018-08-09T01:58:16.520Z,1002.30
2018-08-09T01:59:16.495Z,1002.28
2018-08-09T02:00:16.470Z,1002.25
2018-08-09T02:01:16.444Z,1002.33
2018-08-09T02:02:16.422Z,1002.31
2018-08-09T02:03:16.398Z,1002.33
2018-08-09T02:04:16.376Z,1002.29
2018-08-09T02:05:16.355Z,1002.32
2018-08-09T02:06:16.344Z,1002.32
2018-08-09T02:07:16.299Z,1002.27
2018-08-09T02:08:16.272Z,1002.27
2018-08-09T02:09:16.257Z,1002.26
2018-08-09T02:10:16.223Z,1002.25
2018-08-09T02:11:16.208Z,1002.26
2018-08-09T02:12:16.174Z,1002.23
2018-08-09T02:13:16.235Z,1002.24
2018-08-09T02:14:16.130Z,1002.22
2018-08-09T02:15:16.105Z,1002.19
2018-08-09T02:16:16.085Z,1002.21
2018-08-09T02:17:16.053Z,1002.17
2018-08-09T02:18:16.033Z,1002.20
2018-08-09T02:19:16.010Z,1002.20
2018-08-09T02:20:15.985Z,1002.21
2018-08-09T02:21:15.965Z,1002.24
2018-08-09T02:22:15.975Z,1002.23
2018-08-09T02:23:15.919Z,1002.24
2018-08-09T02:24:15.885Z,1002.21
2018-08-09T02:25:15.866Z,1002.20
2018-08-09T02:26:15.842Z,1002.19
2018-08-09T02:27:15.810Z,1002.17
2018-08-09T02:28:15.794Z,1002.17
2018-08-09T02:29:15.762Z,1002.13
2018-08-09T02:30:15.746Z,1002.11
2018-08-09T02:31:15.713Z,1002.09
2018-08-09T02:32:15.687Z,1002.08
2018-08-09T02:33:15.670Z,1002.11
2018-08-09T02:34:15.638Z,1002.07
2018-08-09T02:35:15.621Z,1002.04
2018-08-09T02:36:15.606Z,1001.96
2018-08-09T02:37:15.571Z,1001.99
2018-08-09T02:38:15.549Z,1001.91
2018-08-09T02:39:15.522Z,1001.92
2018-08-09T02:40:15.539Z,1001.91
2018-08-09T02:41:15.485Z,1001.94
2018-08-09T02:42:15.449Z,1001.93
2018-08-09T02:43:15.436Z,1001.91
2018-08-09T02:44:15.400Z,1001.87
2018-08-09T02:45:15.373Z,1001.88
2018-08-09T02:46:15.349Z,1001.96
2018-08-09T02:47:15.324Z,1001.99
2018-08-09T02:48:15.300Z,1002.02
2018-08-09T02:49:15.277Z,1002.06
2018-08-09T02:50:15.257Z,1002.03
2018-08-09T02:51:15.229Z,1002.05
2018-08-09T02:52:15.199Z,1002.04
2018-08-09T02:53:15.186Z,1001.99
2018-08-09T02:54:15.156Z,1002.05
2018-08-09T02:55:15.127Z,1002.04
2018-08-09T02:56:15.110Z,1002.01
2018-08-09T02:57:15.075Z,1002.00
2018-08-09T02:58:15.062Z,1001.98
2018-08-09T02:59:15.032Z,1001.91
2018-08-09T03:00:15.007Z,1001.91
2018-08-09T03:01:14.982Z,1001.85
2018-08-09T03:02:14.954Z,1001.88
2018-08-09T03:03:14.933Z,1001.87
2018-08-09T03:04:14.910Z,1001.85
2018-08-09T03:05:14.886Z,1001.84
2018-08-09T03:06:14.861Z,1001.81
2018-08-09T03:07:14.839Z,1001.80
2018-08-09T03:08:14.817Z,1001.77
2018-08-09T03:09:14.792Z,1001.78
2018-08-09T03:10:14.764Z,1001.79
2018-08-09T03:11:14.741Z,1001.76
2018-08-09T03:12:14.716Z,1001.74
2018-08-09T03:13:14.694Z,1001.74
2018-08-09T03:14:14.660Z,1001.74
2018-08-09T03:15:14.636Z,1001.76
2018-08-09T03:16:14.610Z,1001.72
2018-08-09T03:17:14.607Z,1001.79
2018-08-09T03:18:14.569Z,1001.81
2018-08-09T03:19:14.540Z,1001.82
2018-08-09T03:20:14.523Z,1001.80
2018-08-09T03:21:14.492Z,1001.79
2018-08-09T03:22:14.464Z,1001.76
2018-08-09T03:23:14.446Z,1001.73
2018-08-09T03:24:14.429Z,1001.70
2018-08-09T03:25:14.395Z,1001.64
2018-08-09T03:26:14.374Z,1001.67
2018-08-09T03:27:14.338Z,1001.69
2018-08-09T03:28:14.321Z,1001.64
2018-08-09T03:29:14.323Z,1001.64
2018-08-09T03:30:14.273Z,1001.62
2018-08-09T03:31:14.353Z,1001.66
2018-08-09T03:32:14.222Z,1001.63
2018-08-09T03:33:14.198Z,1001.67
2018-08-09T03:34:14.168Z,1001.70
2018-08-09T03:35:14.157Z,1001.74
2018-08-09T03:36:14.122Z,1001.77
2018-08-09T03:37:14.105Z,1001.84
2018-08-09T03:38:14.082Z,1001.85
2018-08-09T03:39:14.051Z,1001.86
2018-08-09T03:40:14.021Z,1001.86
2018-08-09T03:41:14.007Z,1001.90
2018-08-09T03:42:13.975Z,1001.87
2018-08-09T03:43:13.948Z,1001.86
2018-08-09T03:44:13.936Z,1001.89
2018-08-09T03:45:13.899Z,1001.86
2018-08-09T03:46:13.882Z,1001.85
2018-08-09T03:47:13.857Z,1001.84
2018-08-09T03:48:13.832Z,1001.82
2018-08-09T03:49:13.803Z,1001.77
2018-08-09T03:50:13.787Z,1001.76
2018-08-09T03:51:13.775Z,1001.76
2018-08-09T03:52:13.727Z,1001.71
2018-08-09T03:53:13.713Z,1001.74
2018-08-09T03:54:13.677Z,1001.72
2018-08-09T03:55:13.661Z,1001.72
2018-08-09T03:56:13.632Z,1001.73
2018-08-09T03:57:13.614Z,1001.72
2018-08-09T03:58:13.611Z,1001.72
2018-08-09T03:59:13.560Z,1001.75
2018-08-09T04:00:13.535Z,1001.74
2018-08-09T04:01:13.506Z,1001.75
2018-08-09T04:02:13.485Z,1001.74
2018-08-09T04:03:13.458Z,1001.75
2018-08-09T04:04:13.437Z,1001.76
2018-08-09T04:05:13.409Z,1001.76
2018-08-09T04:06:13.380Z,1001.73
2018-08-09T04:07:13.360Z,1001.73
2018-08-09T04:08:13.346Z,1001.76
2018-08-09T04:09:13.314Z,1001.76
2018-08-09T04:10:13.288Z,1001.77
2018-08-09T04:11:13.263Z,1001.80
2018-08-09T04:12:13.243Z,1001.80
2018-08-09T04:13:13.213Z,1001.82
2018-08-09T04:14:13.193Z,1001.81
2018-08-09T04:15:13.172Z,1001.80
2018-08-09T04:16:13.139Z,1001.78
2018-08-09T04:17:13.119Z,1001.71
2018-08-09T04:18:13.092Z,1001.70
2018-08-09T04:19:13.074Z,1001.72
2018-08-09T04:20:13.046Z,1001.75
2018-08-09T04:21:13.019Z,1001.77
2018-08-09T04:22:12.997Z,1001.71
2018-08-09T04:23:12.970Z,1001.73
2018-08-09T04:24:12.950Z,1001.76
2018-08-09T04:25:12.927Z,1001.74
2018-08-09T04:26:12.900Z,1001.75
2018-08-09T04:27:12.871Z,1001.81
2018-08-09T04:28:12.845Z,1001.83
2018-08-09T04:29:12.823Z,1001.85
2018-08-09T04:30:12.800Z,1001.83
2018-08-09T04:31:12.773Z,1001.88
2018-08-09T04:32:12.749Z,1001.88
2018-08-09T04:33:12.721Z,1001.92
2018-08-09T04:34:12.698Z,1001.92
2018-08-09T04:35:12.680Z,1001.95
2018-08-09T04:36:12.649Z,1001.94
2018-08-09T04:37:12.630Z,1001.92
2018-08-09T04:38:12.601Z,1001.93
2018-08-09T04:39:12.579Z,1001.92
2018-08-09T04:40:12.554Z,1001.86
2018-08-09T04:41:12.525Z,1001.87
2018-08-09T04:42:12.502Z,1001.84
2018-08-09T04:43:12.477Z,1001.88
2018-08-09T04:44:12.455Z,1001.77
2018-08-09T04:45:12.434Z,1001.81
2018-08-09T04:46:12.412Z,1001.78
2018-08-09T04:47:12.379Z,1001.75
2018-08-09T04:48:12.361Z,1001.68
2018-08-09T04:49:12.354Z,1001.60
2018-08-09T04:50:12.305Z,1001.58
2018-08-09T04:51:12.282Z,1001.57
2018-08-09T04:52:12.256Z,1001.55
2018-08-09T04:53:12.233Z,1001.54
2018-08-09T04:54:12.212Z,1001.53
2018-08-09T04:55:12.178Z,1001.60
2018-08-09T04:56:12.160Z,1001.60
2018-08-09T04:57:12.132Z,1001.64
2018-08-09T04:58:12.166Z,1001.65
2018-08-09T04:59:12.089Z,1001.62
2018-08-09T05:00:12.082Z,1001.66
2018-08-09T05:01:12.039Z,1001.66
2018-08-09T05:02:12.010Z,1001.60
2018-08-09T05:03:11.990Z,1001.59
2018-08-09T05:04:11.969Z,1001.51
2018-08-09T05:05:11.940Z,1001.53
2018-08-09T05:06:11.914Z,1001.52
2018-08-09T05:07:11.887Z,1001.51
2018-08-09T05:08:11.860Z,1001.50
2018-08-09T05:09:11.845Z,1001.45
2018-08-09T05:10:11.873Z,1001.45
2018-08-09T05:11:11.796Z,1001.40
2018-08-09T05:12:11.764Z,1001.44
2018-08-09T05:13:11.739Z,1001.41
2018-08-09T05:14:11.721Z,1001.41
2018-08-09T05:15:11.689Z,1001.45
2018-08-09T05:16:11.669Z,1001.45
2018-08-09T05:17:11.648Z,1001.44
2018-08-09T05:18:11.621Z,1001.44
2018-08-09T05:19:11.594Z,1001.46
2018-08-09T05:20:11.570Z,1001.43
2018-08-09T05:21:11.548Z,1001.44
2018-08-09T05:22:11.520Z,1001.48
2018-08-09T05:23:11.613Z,1001.47
2018-08-09T05:24:11.476Z,1001.46
2018-08-09T05:25:11.444Z,1001.48
2018-08-09T05:26:11.422Z,1001.50
2018-08-09T05:27:11.397Z,1001.50
2018-08-09T05:28:11.378Z,1001.46
2018-08-09T05:29:11.354Z,1001.47
2018-08-09T05:30:11.334Z,1001.44
2018-08-09T05:31:11.311Z,1001.47
2018-08-09T05:32:11.286Z,1001.46
2018-08-09T05:33:11.255Z,1001.44
2018-08-09T05:34:11.249Z,1001.39
2018-08-09T05:35:11.205Z,1001.37
2018-08-09T05:36:11.186Z,1001.34
2018-08-09T05:37:11.156Z,1001.38
2018-08-09T05:38:11.134Z,1001.34
2018-08-09T05:39:11.105Z,1001.37
2018-08-09T05:40:11.088Z,1001.37
2018-08-09T05:41:11.057Z,1001.38
2018-08-09T05:42:11.029Z,1001.31
2018-08-09T05:43:11.014Z,1001.30
2018-08-09T05:44:10.992Z,1001.21
2018-08-09T05:45:11.001Z,1001.16
2018-08-09T05:46:10.940Z,1001.14
2018-08-09T05:47:10.914Z,1001.11
2018-08-09T05:48:10.884Z,1001.08
2018-08-09T05:49:10.869Z,1001.09
2018-08-09T05:50:10.842Z,1001.15
2018-08-09T05:51:10.813Z,1001.18
2018-08-09T05:52:10.796Z,1001.24
2018-08-09T05:53:10.812Z,1001.27
2018-08-09T05:54:10.746Z,1001.27
2018-08-09T05:55:10.719Z,1001.21
2018-08-09T05:56:10.697Z,1001.18
2018-08-09T05:57:10.670Z,1001.15
2018-08-09T05:58:10.648Z,1001.08
2018-08-09T05:59:10.615Z,1001.09
2018-08-09T06:00:10.595Z,1001.04
2018-08-09T06:01:10.574Z,1001.12
2018-08-09T06:02:10.540Z,1001.10
2018-08-09T06:03:10.522Z,1001.11
2018-08-09T06:04:10.500Z,1001.11
2018-08-09T06:05:10.468Z,1001.09
2018-08-09T06:06:10.448Z,1001.10
2018-08-09T06:07:10.424Z,1001.09
2018-08-09T06:08:10.397Z,1001.09
2018-08-09T06:09:10.378Z,1001.10
2018-08-09T06:10:10.348Z,1001.10
2018-08-09T06:11:10.331Z,1001.13
2018-08-09T06:12:10.299Z,1001.14
2018-08-09T06:13:10.285Z,1001.13
2018-08-09T06:14:10.262Z,1001.14
2018-08-09T06:15:10.241Z,1001.13
2018-08-09T06:16:10.204Z,1001.15
2018-08-09T06:17:10.182Z,1001.11
2018-08-09T06:18:10.162Z,1001.05
2018-08-09T06:19:10.128Z,1001.06
2018-08-09T06:20:10.111Z,1000.99
2018-08-09T06:21:10.082Z,1000.98
2018-08-09T06:22:10.055Z,1000.99
2018-08-09T06:23:10.043Z,1000.98
2018-08-09T06:24:10.008Z,1000.98
2018-08-09T06:25:09.997Z,1000.97
2018-08-09T06:26:09.958Z,1000.96
2018-08-09T06:27:09.941Z,1000.99
2018-08-09T06:28:09.912Z,1000.97
2018-08-09T06:29:09.899Z,1001.00
2018-08-09T06:30:09.866Z,1000.99
2018-08-09T06:31:09.838Z,1000.99
2018-08-09T06:32:09.813Z,1000.97
2018-08-09T06:33:09.793Z,1000.94
2018-08-09T06:34:09.765Z,1000.92
2018-08-09T06:35:09.748Z,1000.93
2018-08-09T06:36:09.720Z,1000.87
2018-08-09T06:37:09.699Z,1000.86
2018-08-09T06:38:09.670Z,1000.85
2018-08-09T06:39:09.648Z,1000.76
2018-08-09T06:40:09.626Z,1000.70
2018-08-09T06:41:09.597Z,1000.66
2018-08-09T06:42:09.575Z,1000.68
2018-08-09T06:43:09.550Z,1000.74
2018-08-09T06:44:09.533Z,1000.75
2018-08-09T06:45:09.506Z,1000.77
2018-08-09T06:46:09.480Z,1000.76
2018-08-09T06:47:09.459Z,1000.76
2018-08-09T06:48:09.436Z,1000.75
2018-08-09T06:49:09.402Z,1000.75
2018-08-09T06:50:09.386Z,1000.72
2018-08-09T06:51:09.354Z,1000.74
2018-08-09T06:52:09.329Z,1000.74
2018-08-09T06:53:09.313Z,1000.76
2018-08-09T06:54:09.289Z,1000.80
2018-08-09T06:55:09.259Z,1000.80
2018-08-09T06:56:09.293Z,1000.77
2018-08-09T06:57:09.209Z,1000.81
2018-08-09T06:58:09.188Z,1000.75
2018-08-09T06:59:09.167Z,1000.76
2018-08-09T07:00:09.139Z,1000.72
2018-08-09T07:01:09.118Z,1000.70
2018-08-09T07:02:09.092Z,1000.72
2018-08-09T07:03:09.069Z,1000.67
2018-08-09T07:04:09.039Z,1000.65
2018-08-09T07:05:09.025Z,1000.66
2018-08-09T07:06:09.015Z,1000.64
2018-08-09T07:07:08.987Z,1000.68
2018-08-09T07:08:08.953Z,1000.71
2018-08-09T07:09:08.922Z,1000.77
2018-08-09T07:10:08.904Z,1000.76
2018-08-09T07:11:08.876Z,1000.76
2018-08-09T07:12:08.849Z,1000.74
2018-08-09T07:13:08.838Z,1000.69
2018-08-09T07:14:08.800Z,1000.70
2018-08-09T07:15:08.786Z,1000.69
2018-08-09T07:16:08.760Z,1000.68
2018-08-09T07:17:08.734Z,1000.70
2018-08-09T07:18:08.706Z,1000.78
2018-08-09T07:19:08.684Z,1000.74
2018-08-09T07:20:08.668Z,1000.76
2018-08-09T07:21:08.641Z,1000.73
2018-08-09T07:22:08.613Z,1000.73
2018-08-09T07:23:08.593Z,1000.72
2018-08-09T07:24:08.575Z,1000.73
2018-08-09T07:25:08.550Z,1000.69
2018-08-09T07:26:08.520Z,1000.65
2018-08-09T07:27:08.496Z,1000.64
2018-08-09T07:28:08.470Z,1000.63
2018-08-09T07:29:08.455Z,1000.59
2018-08-09T07:30:08.425Z,1000.56
2018-08-09T07:31:08.413Z,1000.58
2018-08-09T07:32:08.386Z,1000.59
2018-08-09T07:33:08.349Z,1000.58
2018-08-09T07:34:08.377Z,1000.59
2018-08-09T07:35:08.301Z,1000.55
2018-08-09T07:36:08.284Z,1000.57
2018-08-09T07:37:08.270Z,1000.52
2018-08-09T07:38:08.233Z,1000.50
2018-08-09T07:39:08.244Z,1000.45
2018-08-09T07:40:08.187Z,1000.42
2018-08-09T07:41:08.174Z,1000.43
2018-08-09T07:42:08.136Z,1000.40
2018-08-09T07:43:08.119Z,1000.37
2018-08-09T07:44:08.096Z,1000.37
2018-08-09T07:45:08.065Z,1000.35
2018-08-09T07:46:08.047Z,1000.39
2018-08-09T07:47:08.015Z,1000.41
2018-08-09T07:48:07.995Z,1000.44
2018-08-09T07:49:07.975Z,1000.41
2018-08-09T07:50:07.954Z,1000.42
2018-08-09T07:51:07.928Z,1000.43
2018-08-09T07:52:07.904Z,1000.44
2018-08-09T07:53:07.878Z,1000.46
2018-08-09T07:54:07.855Z,1000.45
2018-08-09T07:55:07.827Z,1000.46
2018-08-09T07:56:07.813Z,1000.41
2018-08-09T07:57:07.844Z,1000.36
2018-08-09T07:58:07.765Z,1000.33
2018-08-09T07:59:07.733Z,1000.31
2018-08-09T08:00:07.709Z,1000.28
2018-08-09T08:01:07.696Z,1000.26
2018-08-09T08:02:07.664Z,1000.29
2018-08-09T08:03:07.654Z,1000.28
2018-08-09T08:04:07.638Z,1000.27
2018-08-09T08:05:07.599Z,1000.32
2018-08-09T08:06:07.579Z,1000.26
2018-08-09T08:07:07.552Z,1000.29
2018-08-09T08:08:07.595Z,1000.22
2018-08-09T08:09:07.507Z,1000.21
2018-08-09T08:10:07.483Z,1000.22
2018-08-09T08:11:07.455Z,1000.19
2018-08-09T08:12:07.431Z,1000.12
2018-08-09T08:13:07.465Z,1000.11
2018-08-09T08:14:07.386Z,1000.14
2018-08-09T08:15:07.471Z,1000.17
2018-08-09T08:16:07.345Z,1000.11
2018-08-09T08:17:07.313Z,1000.13
2018-08-09T08:18:07.295Z,1000.14
2018-08-09T08:19:07.271Z,1000.11
2018-08-09T08:20:07.244Z,1000.04
2018-08-09T08:21:07.224Z,1000.06
2018-08-09T08:22:07.202Z,1000.00
2018-08-09T08:23:07.169Z,999.98
2018-08-09T08:24:07.155Z,999.99
2018-08-09T08:25:07.126Z,999.93
2018-08-09T08:26:07.108Z,999.92
2018-08-09T08:27:07.088Z,999.89
2018-08-09T08:28:07.056Z,999.86
2018-08-09T08:29:07.036Z,999.83
2018-08-09T08:30:07.016Z,999.84
2018-08-09T08:31:06.985Z,999.88
2018-08-09T08:32:06.967Z,999.87
2018-08-09T08:33:06.941Z,999.81
2018-08-09T08:34:06.913Z,999.79
2018-08-09T08:35:06.899Z,999.71
2018-08-09T08:36:06.868Z,999.72
2018-08-09T08:37:06.856Z,999.69
2018-08-09T08:38:06.835Z,999.62
2018-08-09T08:39:06.803Z,999.64
2018-08-09T08:40:06.785Z,999.61
2018-08-09T08:41:06.763Z,999.62
2018-08-09T08:42:06.734Z,999.61
2018-08-09T08:43:06.714Z,999.54
2018-08-09T08:44:06.687Z,999.59
2018-08-09T08:45:06.669Z,999.56
2018-08-09T08:46:06.640Z,999.58
2018-08-09T08:47:06.621Z,999.55
2018-08-09T08:48:06.600Z,999.56
2018-08-09T08:49:06.573Z,999.48
2018-08-09T08:50:06.553Z,999.46
2018-08-09T08:51:06.525Z,999.46
2018-08-09T08:52:06.505Z,999.40
2018-08-09T08:53:06.598Z,999.40
2018-08-09T08:54:06.457Z,999.43
2018-08-09T08:55:06.446Z,999.43
2018-08-09T08:56:06.416Z,999.41
2018-08-09T08:57:06.390Z,999.43
2018-08-09T08:58:06.367Z,999.42
2018-08-09T08:59:06.364Z,999.40
2018-08-09T09:00:06.326Z,999.36
2018-08-09T09:01:06.339Z,999.41
2018-08-09T09:02:06.279Z,999.35
2018-08-09T09:03:06.252Z,999.36
2018-08-09T09:04:06.238Z,999.35
2018-08-09T09:05:06.287Z,999.35
2018-08-09T09:06:06.247Z,999.31
2018-08-09T09:07:06.195Z,999.31
2018-08-09T09:08:06.134Z,999.30
2018-08-09T09:09:06.112Z,999.29
2018-08-09T09:10:06.091Z,999.25
2018-08-09T09:11:06.085Z,999.32
2018-08-09T09:12:06.049Z,999.36
2018-08-09T09:13:06.022Z,999.24
2018-08-09T09:14:05.997Z,999.30
2018-08-09T09:15:05.972Z,999.27
2018-08-09T09:16:05.952Z,999.22
2018-08-09T09:17:05.932Z,999.22
2018-08-09T09:18:05.907Z,999.22
2018-08-09T09:19:05.907Z,999.19
2018-08-09T09:20:05.866Z,999.17
2018-08-09T09:21:05.835Z,999.17
2018-08-09T09:22:05.813Z,999.15
2018-08-09T09:23:05.797Z,999.15
2018-08-09T09:24:05.774Z,999.15
2018-08-09T09:25:05.747Z,999.15
2018-08-09T09:26:05.724Z,999.16
2018-08-09T09:27:05.758Z,999.13
2018-08-09T09:28:05.677Z,999.08
2018-08-09T09:29:05.664Z,998.97
2018-08-09T09:30:05.637Z,998.94
2018-08-09T09:31:05.609Z,998.89
2018-08-09T09:32:05.590Z,998.89
2018-08-09T09:33:05.565Z,998.89
2018-08-09T09:34:05.546Z,998.85
2018-08-09T09:35:05.539Z,998.81
2018-08-09T09:36:05.502Z,998.74
2018-08-09T09:37:05.475Z,998.69
2018-08-09T09:38:05.449Z,998.64
2018-08-09T09:39:05.433Z,998.60
2018-08-09T09:40:05.406Z,998.59
2018-08-09T09:41:05.385Z,998.54
2018-08-09T09:42:05.362Z,998.54
2018-08-09T09:43:05.336Z,998.54
2018-08-09T09:44:05.311Z,998.51
2018-08-09T09:45:05.292Z,998.54
2018-08-09T09:46:05.270Z,998.56
2018-08-09T09:47:05.247Z,998.52
2018-08-09T09:48:05.271Z,998.51
2018-08-09T09:49:05.212Z,998.50
2018-08-09T09:50:05.182Z,998.43
2018-08-09T09:51:05.160Z,998.40
2018-08-09T09:52:05.132Z,998.35
2018-08-09T09:53:05.112Z,998.33
2018-08-09T09:54:05.084Z,998.29
2018-08-09T09:55:05.064Z,998.29
2018-08-09T09:56:05.059Z,998.27
2018-08-09T09:57:05.019Z,998.28
2018-08-09T09:58:04.997Z,998.29
2018-08-09T09:59:04.970Z,998.27
2018-08-09T10:00:04.957Z,998.28
2018-08-09T10:01:04.933Z,998.22
2018-08-09T10:02:04.948Z,998.21
2018-08-09T10:03:04.919Z,998.10
2018-08-09T10:04:04.877Z,998.09
2018-08-09T10:05:04.833Z,998.04
2018-08-09T10:06:04.819Z,998.03
2018-08-09T10:07:04.836Z,997.98
2018-08-09T10:08:04.770Z,997.99
2018-08-09T10:09:04.753Z,997.96
2018-08-09T10:10:04.721Z,997.92
2018-08-09T10:11:04.704Z,997.91
2018-08-09T10:12:04.684Z,997.79
2018-08-09T10:13:04.654Z,997.76
2018-08-09T10:14:04.632Z,997.69
2018-08-09T10:15:04.616Z,997.62
2018-08-09T10:16:04.595Z,997.51
2018-08-09T10:17:04.571Z,997.52
2018-08-09T10:18:04.550Z,997.50
2018-08-09T10:19:04.525Z,997.49
2018-08-09T10:20:04.495Z,997.44
2018-08-09T10:21:04.482Z,997.45
2018-08-09T10:22:04.450Z,997.41
2018-08-09T10:23:04.435Z,997.38
2018-08-09T10:24:04.414Z,997.37
2018-08-09T10:25:04.383Z,997.38
2018-08-09T10:26:04.368Z,997.30
2018-08-09T10:27:04.338Z,997.31
2018-08-09T10:28:04.318Z,997.30
2018-08-09T10:29:04.309Z,997.29
2018-08-09T10:30:04.278Z,997.22
2018-08-09T10:31:04.253Z,997.21
2018-08-09T10:32:04.224Z,997.17
2018-08-09T10:33:04.204Z,997.17
2018-08-09T10:34:04.185Z,997.12
2018-08-09T10:35:04.161Z,997.10
2018-08-09T10:36:04.140Z,997.06
2018-08-09T10:37:04.117Z,997.06
2018-08-09T10:38:04.136Z,997.06
2018-08-09T10:39:04.066Z,997.00
2018-08-09T10:40:04.184Z,996.99
2018-08-09T10:41:04.024Z,996.96
2018-08-09T10:42:03.996Z,996.99
2018-08-09T10:43:03.986Z,996.96
2018-08-09T10:44:03.962Z,996.92
2018-08-09T10:45:03.941Z,996.93
2018-08-09T10:46:03.909Z,996.86
2018-08-09T10:47:03.887Z,996.87
2018-08-09T10:48:03.866Z,996.77
2018-08-09T10:49:03.849Z,996.77
2018-08-09T10:50:03.822Z,996.75
2018-08-09T10:51:03.802Z,996.66
2018-08-09T10:52:03.785Z,996.66
2018-08-09T10:53:03.752Z,996.61
2018-08-09T10:54:03.729Z,996.55
2018-08-09T10:55:03.714Z,996.57
2018-08-09T10:56:03.686Z,996.53
2018-08-09T10:57:03.664Z,996.48
2018-08-09T10:58:03.648Z,996.48
2018-08-09T10:59:03.623Z,996.46
2018-08-09T11:00:03.603Z,996.51
2018-08-09T11:01:03.832Z,996.52
2018-08-09T11:02:03.555Z,996.49
2018-08-09T11:03:03.531Z,996.45
2018-08-09T11:04:03.509Z,996.44
2018-08-09T11:05:03.489Z,996.39
2018-08-09T11:06:03.459Z,996.36
2018-08-09T11:07:03.440Z,996.31
2018-08-09T11:08:03.425Z,996.24
2018-08-09T11:09:03.394Z,996.24
2018-08-09T11:10:03.370Z,996.18
2018-08-09T11:11:03.354Z,996.16
2018-08-09T11:12:03.324Z,996.08
2018-08-09T11:13:03.313Z,996.08
2018-08-09T11:14:03.280Z,996.02
2018-08-09T11:15:03.277Z,996.01
2018-08-09T11:16:03.241Z,995.96
2018-08-09T11:17:03.245Z,995.95
2018-08-09T11:18:03.191Z,995.91
2018-08-09T11:19:03.177Z,995.91
2018-08-09T11:20:03.147Z,995.89
2018-08-09T11:21:03.130Z,995.82
2018-08-09T11:22:03.111Z,995.85
2018-08-09T11:23:03.089Z,995.83
2018-08-09T11:24:03.062Z,995.79
2018-08-09T11:25:03.051Z,995.73
2018-08-09T11:26:03.014Z,995.71
2018-08-09T11:27:03.002Z,995.70
2018-08-09T11:28:02.976Z,995.70
2018-08-09T11:29:02.948Z,995.61
2018-08-09T11:30:02.932Z,995.62
2018-08-09T11:31:02.902Z,995.66
2018-08-09T11:32:02.891Z,995.68
2018-08-09T11:33:02.858Z,995.65
2018-08-09T11:34:02.867Z,995.65
2018-08-09T11:35:02.820Z,995.61
2018-08-09T11:36:02.797Z,995.57
2018-08-09T11:37:02.778Z,995.57
2018-08-09T11:38:02.748Z,995.58
2018-08-09T11:39:02.734Z,995.54
2018-08-09T11:40:02.707Z,995.51
2018-08-09T11:41:02.691Z,995.44
2018-08-09T11:42:02.674Z,995.36
2018-08-09T11:43:02.658Z,995.28
2018-08-09T11:44:02.623Z,995.23
2018-08-09T11:45:02.599Z,995.21
2018-08-09T11:46:02.572Z,995.17
2018-08-09T11:47:02.560Z,995.15
2018-08-09T11:48:02.530Z,995.17
2018-08-09T11:49:02.522Z,995.14
2018-08-09T11:50:02.536Z,995.16
2018-08-09T11:51:02.474Z,995.12
2018-08-09T11:52:02.446Z,995.10
2018-08-09T11:53:02.424Z,995.13
2018-08-09T11:54:02.410Z,995.08
2018-08-09T11:55:02.382Z,995.12
2018-08-09T11:56:02.382Z,995.10
2018-08-09T11:57:02.399Z,995.07
2018-08-09T11:58:02.322Z,995.05
2018-08-09T11:59:02.296Z,995.06
2018-08-09T12:00:02.284Z,995.05
2018-08-09T12:01:02.252Z,995.01
2018-08-09T12:02:02.233Z,994.97
2018-08-09T12:03:02.212Z,994.91
2018-08-09T12:04:02.191Z,994.91
2018-08-09T12:05:02.173Z,994.93
2018-08-09T12:06:02.153Z,994.94
2018-08-09T12:07:02.174Z,994.93
2018-08-09T12:08:02.110Z,994.84
2018-08-09T12:09:02.085Z,994.89
2018-08-09T12:10:02.061Z,994.93
2018-08-09T12:11:02.049Z,994.89
2018-08-09T12:12:02.066Z,994.94
2018-08-09T12:13:02.007Z,994.96
2018-08-09T12:14:01.984Z,994.81
2018-08-09T12:15:02.026Z,994.75
2018-08-09T12:16:01.940Z,994.79
2018-08-09T12:17:01.923Z,994.69
2018-08-09T12:18:01.893Z,994.67
2018-08-09T12:19:01.910Z,994.71
2018-08-09T12:20:01.859Z,994.69
2018-08-09T12:21:01.844Z,994.67
2018-08-09T12:22:01.807Z,994.65
2018-08-09T12:23:01.793Z,994.62